createdAt,value
2019-03-23T00:00:29.195Z,102332.63
2019-03-23T00:03:01.707Z,102326.16
2019-03-23T00:05:35.151Z,102318.35
2019-03-23T00:08:07.608Z,102313.67
2019-03-23T00:10:39.802Z,102312.94
2019-03-23T00:13:12.180Z,102310.44
2019-03-23T00:15:44.550Z,102301.80
2019-03-23T00:18:16.945Z,102300.19
2019-03-23T00:20:49.262Z,102294.56
2019-03-23T00:23:21.595Z,102294.56
2019-03-23T00:25:54.005Z,102297.27
2019-03-23T00:28:27.685Z,102285.64
2019-03-23T00:31:00.165Z,102281.48
2019-03-23T00:33:32.725Z,102281.48
2019-03-23T00:36:05.220Z,102273.75
2019-03-23T00:38:37.690Z,102268.35
2019-03-23T00:41:10.060Z,102268.35
2019-03-23T00:43:42.475Z,102267.12
2019-03-23T00:46:14.790Z,102268.28
2019-03-23T00:48:47.184Z,102268.28
2019-03-23T00:51:19.570Z,102261.90
2019-03-23T00:53:53.331Z,102262.08
2019-03-23T00:56:25.653Z,102263.09
2019-03-23T00:58:58.065Z,102258.44
2019-03-23T01:01:30.425Z,102252.98
2019-03-23T01:04:02.945Z,102257.09
2019-03-23T01:06:35.145Z,102238.20
2019-03-23T01:09:09.221Z,102252.62
2019-03-23T01:11:41.305Z,102237.95
2019-03-23T01:14:13.705Z,102240.22
2019-03-23T01:16:46.037Z,102232.02
2019-03-23T01:19:18.425Z,102231.20
2019-03-23T01:21:50.685Z,102234.34
2019-03-23T01:24:23.240Z,102224.02
2019-03-23T01:26:55.616Z,102227.56
2019-03-23T01:29:28.081Z,102222.89
2019-03-23T01:32:00.465Z,102222.48
2019-03-23T01:34:32.845Z,102216.05
2019-03-23T01:37:05.225Z,102210.45
2019-03-23T01:39:37.600Z,102210.09
2019-03-23T01:42:09.957Z,102216.18
2019-03-23T01:44:42.330Z,102214.47
2019-03-23T01:47:14.865Z,102213.19
2019-03-23T01:49:47.180Z,102211.91
2019-03-23T01:52:19.723Z,102215.47
2019-03-23T01:54:52.046Z,102211.20
2019-03-23T01:57:24.485Z,102213.05
2019-03-23T01:59:56.975Z,102209.13
2019-03-23T02:02:29.310Z,102209.65
2019-03-23T02:05:01.706Z,102211.84
2019-03-23T02:07:34.995Z,102205.44
2019-03-23T02:10:10.340Z,102206.37
2019-03-23T02:12:42.701Z,102200.80
2019-03-23T02:15:15.071Z,102196.11
2019-03-23T02:17:47.570Z,102193.09
2019-03-23T02:20:19.705Z,102198.73
2019-03-23T02:22:52.026Z,102194.39
2019-03-23T02:25:24.485Z,102188.34
2019-03-23T02:27:56.825Z,102193.14
2019-03-23T02:30:29.036Z,102189.70
2019-03-23T02:33:01.255Z,102191.56
2019-03-23T02:35:33.593Z,102194.64
2019-03-23T02:38:05.785Z,102188.69
2019-03-23T02:40:37.989Z,102190.05
2019-03-23T02:43:10.336Z,102192.23
2019-03-23T02:45:42.938Z,102194.02
2019-03-23T02:48:15.087Z,102195.81
2019-03-23T02:50:47.405Z,102195.39
2019-03-23T02:53:19.922Z,102188.93
2019-03-23T02:55:52.215Z,102193.70
2019-03-23T02:58:24.275Z,102185.91
2019-03-23T03:00:56.536Z,102186.36
2019-03-23T03:03:28.789Z,102190.70
2019-03-23T03:06:01.127Z,102186.41
2019-03-23T03:08:33.938Z,102191.63
2019-03-23T03:11:06.536Z,102190.32
2019-03-23T03:13:38.723Z,102183.85
2019-03-23T03:16:11.015Z,102178.25
2019-03-23T03:18:43.436Z,102183.95
2019-03-23T03:21:15.845Z,102180.07
2019-03-23T03:23:48.188Z,102177.96
2019-03-23T03:26:20.580Z,102172.77
2019-03-23T03:28:52.824Z,102165.84
2019-03-23T03:31:25.221Z,102172.36
2019-03-23T03:33:57.482Z,102170.64
2019-03-23T03:36:30.266Z,102167.62
2019-03-23T03:39:02.721Z,102173.25
2019-03-23T03:41:34.821Z,102165.05
2019-03-23T03:44:07.100Z,102165.95
2019-03-23T03:46:39.647Z,102159.45
2019-03-23T03:49:13.018Z,102163.40
2019-03-23T03:51:45.613Z,102162.13
2019-03-23T03:54:17.900Z,102164.77
2019-03-23T03:56:50.287Z,102163.93
2019-03-23T03:59:22.520Z,102159.60
2019-03-23T04:01:55.026Z,102161.31
2019-03-23T04:04:27.360Z,102164.36
2019-03-23T04:06:59.686Z,102154.81
2019-03-23T04:09:32.007Z,102159.14
2019-03-23T04:12:04.297Z,102151.78
2019-03-23T04:14:36.339Z,102152.27
2019-03-23T04:17:08.522Z,102148.41
2019-03-23T04:19:40.716Z,102148.42
2019-03-23T04:22:13.533Z,102147.16
2019-03-23T04:24:45.732Z,102148.93
2019-03-23T04:27:17.846Z,102147.63
2019-03-23T04:29:50.187Z,102146.77
2019-03-23T04:32:22.472Z,102145.92
2019-03-23T04:34:54.969Z,102138.12
2019-03-23T04:37:27.301Z,102135.50
2019-03-23T04:39:59.740Z,102138.97
2019-03-23T04:42:32.040Z,102129.83
2019-03-23T04:45:05.552Z,102137.61
2019-03-23T04:47:37.805Z,102131.94
2019-03-23T04:50:13.755Z,102125.83
2019-03-23T04:52:46.015Z,102124.54
2019-03-23T04:55:18.485Z,102116.72
2019-03-23T04:57:50.685Z,102117.14
2019-03-23T05:00:22.958Z,102118.83
2019-03-23T05:02:55.368Z,102120.11
2019-03-23T05:05:27.688Z,102126.19
2019-03-23T05:08:00.005Z,102116.65
2019-03-23T05:10:32.156Z,102118.78
2019-03-23T05:13:04.560Z,102105.74
2019-03-23T05:15:36.880Z,102112.22
2019-03-23T05:18:09.560Z,102116.95
2019-03-23T05:20:42.038Z,102119.13
2019-03-23T05:23:14.934Z,102123.41
2019-03-23T05:25:47.275Z,102124.59
2019-03-23T05:28:19.545Z,102127.08
2019-03-23T05:30:52.031Z,102118.73
2019-03-23T05:33:24.514Z,102124.69
2019-03-23T05:35:57.176Z,102118.83
2019-03-23T05:38:29.854Z,102120.34
2019-03-23T05:41:02.065Z,102107.56
2019-03-23T05:43:34.680Z,102120.92
2019-03-23T05:46:06.869Z,102112.02
2019-03-23T05:48:39.520Z,102114.75
2019-03-23T05:51:11.875Z,102110.94
2019-03-23T05:53:44.335Z,102114.41
2019-03-23T05:56:16.785Z,102116.52
2019-03-23T05:58:49.590Z,102115.03
2019-03-23T06:01:21.895Z,102111.80
2019-03-23T06:03:54.322Z,102111.05
2019-03-23T06:06:26.775Z,102107.56
2019-03-23T06:08:59.570Z,102102.48
2019-03-23T06:11:31.837Z,102099.23
2019-03-23T06:14:04.215Z,102094.32
2019-03-23T06:16:36.590Z,102093.64
2019-03-23T06:19:08.955Z,102093.27
2019-03-23T06:21:42.758Z,102095.61
2019-03-23T06:24:15.671Z,102092.35
2019-03-23T06:26:48.035Z,102090.27
2019-03-23T06:29:20.805Z,102084.51
2019-03-23T06:31:53.296Z,102080.02
2019-03-23T06:34:25.610Z,102076.83
2019-03-23T06:36:57.820Z,102063.53
2019-03-23T06:39:30.264Z,102074.04
2019-03-23T06:42:02.810Z,102074.98
2019-03-23T06:44:35.205Z,102076.59
2019-03-23T06:47:07.792Z,102077.77
2019-03-23T06:49:40.155Z,102072.79
2019-03-23T06:52:12.885Z,102059.72
2019-03-23T06:54:45.340Z,102059.72
2019-03-23T06:57:17.925Z,102065.50
2019-03-23T06:59:50.576Z,102064.18
2019-03-23T07:02:23.110Z,102057.39
2019-03-23T07:04:56.950Z,102064.55
2019-03-23T07:07:29.433Z,102063.62
2019-03-23T07:10:01.926Z,102063.66
2019-03-23T07:12:34.367Z,102074.64
2019-03-23T07:15:19.363Z,102065.30
2019-03-23T07:17:45.054Z,102063.78
2019-03-23T07:20:18.170Z,102055.62
2019-03-23T07:22:52.025Z,102049.11
2019-03-23T07:25:24.595Z,102041.53
2019-03-23T07:27:57.220Z,102037.53
2019-03-23T07:30:29.797Z,102028.02
2019-03-23T07:33:02.108Z,102032.50
2019-03-23T07:35:34.395Z,102029.80
2019-03-23T07:38:06.780Z,102030.59
2019-03-23T07:40:39.305Z,102031.67
2019-03-23T07:43:14.503Z,102025.70
2019-03-23T07:45:47.254Z,102017.57
2019-03-23T07:48:19.470Z,102006.30
2019-03-23T07:50:51.952Z,102014.70
2019-03-23T07:53:24.275Z,102018.93
2019-03-23T07:55:56.775Z,102020.69
2019-03-23T07:58:29.591Z,102021.45
2019-03-23T08:01:02.201Z,102013.66
2019-03-23T08:03:34.576Z,102010.78
2019-03-23T08:06:07.005Z,102015.94
2019-03-23T08:08:39.451Z,102007.66
2019-03-23T08:11:11.966Z,102005.36
2019-03-23T08:13:45.413Z,101999.20
2019-03-23T08:16:17.850Z,102003.61
2019-03-23T08:18:50.726Z,102004.09
2019-03-23T08:21:23.145Z,102004.56
2019-03-23T08:23:55.535Z,102001.94
2019-03-23T08:26:27.960Z,102007.55
2019-03-23T08:29:00.685Z,102007.28
2019-03-23T08:31:33.700Z,102010.55
2019-03-23T08:34:06.070Z,102005.44
2019-03-23T08:36:39.590Z,102004.50
2019-03-23T08:39:12.430Z,101987.52
2019-03-23T08:41:44.929Z,101992.19
2019-03-23T08:44:17.614Z,101993.25
2019-03-23T08:46:50.275Z,101986.67
2019-03-23T08:49:22.670Z,101997.33
2019-03-23T08:51:55.225Z,101994.69
2019-03-23T08:54:27.480Z,101992.68
2019-03-23T08:56:59.945Z,101990.46
2019-03-23T08:59:32.540Z,101987.45
2019-03-23T09:02:06.245Z,101987.84
2019-03-23T09:04:38.970Z,101983.70
2019-03-23T09:07:11.580Z,101979.17
2019-03-23T09:09:44.400Z,101974.75
2019-03-23T09:12:17.100Z,101970.02
2019-03-23T09:14:49.800Z,101972.43
2019-03-23T09:17:22.395Z,101967.80
2019-03-23T09:19:55.200Z,101960.89
2019-03-23T09:22:27.925Z,101955.38
2019-03-23T09:25:00.292Z,101955.52
2019-03-23T09:27:32.862Z,101951.84
2019-03-23T09:30:12.403Z,101952.59
2019-03-23T09:32:44.860Z,101947.14
2019-03-23T09:35:17.455Z,101931.61
2019-03-23T09:37:49.865Z,101929.72
2019-03-23T09:40:22.350Z,101929.39
2019-03-23T09:42:54.785Z,101935.76
2019-03-23T09:45:27.865Z,101928.38
2019-03-23T09:48:00.645Z,101930.99
2019-03-23T09:50:33.140Z,101928.33
2019-03-23T09:53:06.090Z,101924.61
2019-03-23T09:55:38.610Z,101921.73
2019-03-23T09:58:11.425Z,101923.69
2019-03-23T10:00:44.035Z,101918.29
2019-03-23T10:03:16.510Z,101922.63
2019-03-23T10:05:49.183Z,101922.78
2019-03-23T10:08:21.491Z,101914.66
2019-03-23T10:10:54.055Z,101915.19
2019-03-23T10:13:26.460Z,101914.08
2019-03-23T10:15:58.990Z,101912.30
2019-03-23T10:18:31.305Z,101907.94
2019-03-23T10:21:03.745Z,101904.67
2019-03-23T10:23:36.265Z,101908.93
2019-03-23T10:26:08.915Z,101908.19
2019-03-23T10:28:41.165Z,101905.67
2019-03-23T10:31:13.585Z,101890.84
2019-03-23T10:33:46.036Z,101890.23
2019-03-23T10:36:18.605Z,101886.45
2019-03-23T10:38:51.365Z,101891.92
2019-03-23T10:41:24.081Z,101889.98
2019-03-23T10:43:56.611Z,101885.39
2019-03-23T10:46:29.142Z,101876.52
2019-03-23T10:49:01.731Z,101882.96
2019-03-23T10:51:34.297Z,101880.28
2019-03-23T10:54:07.185Z,101879.67
2019-03-23T10:56:39.889Z,101873.83
2019-03-23T10:59:13.375Z,101862.56
2019-03-23T11:01:45.980Z,101862.28
2019-03-23T11:04:18.540Z,101858.05
2019-03-23T11:06:51.190Z,101861.58
2019-03-23T11:09:23.496Z,101863.03
2019-03-23T11:11:56.050Z,101854.77
2019-03-23T11:14:29.575Z,101857.36
2019-03-23T11:17:02.284Z,101860.63
2019-03-23T11:19:34.960Z,101865.26
2019-03-23T11:22:07.525Z,101859.23
2019-03-23T11:24:40.143Z,101866.74
2019-03-23T11:27:12.426Z,101863.14
2019-03-23T11:29:44.901Z,101861.48
2019-03-23T11:32:17.495Z,101861.88
2019-03-23T11:34:50.211Z,101857.06
2019-03-23T11:37:22.641Z,101852.58
2019-03-23T11:39:55.300Z,101852.75
2019-03-23T11:42:27.939Z,101851.32
2019-03-23T11:45:00.651Z,101847.03
2019-03-23T11:47:32.949Z,101849.19
2019-03-23T11:50:07.686Z,101844.45
2019-03-23T11:52:40.390Z,101844.38
2019-03-23T11:55:12.845Z,101844.63
2019-03-23T11:57:45.381Z,101834.33
2019-03-23T12:00:17.861Z,101826.59
2019-03-23T12:02:50.460Z,101817.84
2019-03-23T12:05:22.871Z,101811.99
2019-03-23T12:07:55.315Z,101808.88
2019-03-23T12:10:27.840Z,101806.72
2019-03-23T12:13:00.646Z,101802.05
2019-03-23T12:15:33.226Z,101800.62
2019-03-23T12:18:05.860Z,101790.08
2019-03-23T12:20:38.210Z,101791.67
2019-03-23T12:23:10.552Z,101788.31
2019-03-23T12:25:42.846Z,101789.97
2019-03-23T12:28:15.595Z,101790.48
2019-03-23T12:30:48.085Z,101786.66
2019-03-23T12:33:21.515Z,101777.91
2019-03-23T12:35:53.905Z,101780.67
2019-03-23T12:38:26.755Z,101772.21
2019-03-23T12:41:09.988Z,101771.69
2019-03-23T12:43:33.535Z,101764.03
2019-03-23T12:46:06.045Z,101771.70
2019-03-23T12:48:38.655Z,101767.34
2019-03-23T12:51:11.246Z,101769.25
2019-03-23T12:53:44.018Z,101761.45
2019-03-23T12:56:16.865Z,101755.98
2019-03-23T12:58:49.641Z,101754.53
2019-03-23T13:01:22.995Z,101748.55
2019-03-23T13:03:55.249Z,101750.36
2019-03-23T13:06:28.255Z,101749.51
2019-03-23T13:09:01.760Z,101745.13
2019-03-23T13:11:36.193Z,101739.44
2019-03-23T13:14:09.110Z,101738.92
2019-03-23T13:16:41.730Z,101736.95
2019-03-23T13:19:14.595Z,101740.14
2019-03-23T13:21:47.270Z,101727.08
2019-03-23T13:24:19.940Z,101726.95
2019-03-23T13:26:52.499Z,101725.49
2019-03-23T13:29:25.065Z,101724.73
2019-03-23T13:31:57.575Z,101715.66
2019-03-23T13:34:30.445Z,101715.77
2019-03-23T13:37:02.981Z,101723.54
2019-03-23T13:39:35.610Z,101718.20
2019-03-23T13:42:08.230Z,101720.77
2019-03-23T13:44:40.781Z,101706.16
2019-03-23T13:47:13.296Z,101708.06
2019-03-23T13:49:45.750Z,101700.19
2019-03-23T13:52:18.097Z,101706.48
2019-03-23T13:54:50.680Z,101698.48
2019-03-23T13:57:23.593Z,101696.17
2019-03-23T13:59:56.310Z,101690.10
2019-03-23T14:02:29.115Z,101691.84
2019-03-23T14:05:01.740Z,101692.69
2019-03-23T14:07:34.462Z,101692.17
2019-03-23T14:10:07.405Z,101694.75
2019-03-23T14:12:39.800Z,101692.18
2019-03-23T14:15:12.741Z,101689.50
2019-03-23T14:17:45.245Z,101674.73
2019-03-23T14:20:19.245Z,101687.97
2019-03-23T14:23:02.128Z,101680.04
2019-03-23T14:25:26.240Z,101674.55
2019-03-23T14:27:58.760Z,101667.25
2019-03-23T14:30:31.354Z,101671.49
2019-03-23T14:33:04.060Z,101672.00
2019-03-23T14:35:36.410Z,101670.45
2019-03-23T14:38:09.132Z,101673.60
2019-03-23T14:40:41.591Z,101663.28
2019-03-23T14:43:14.080Z,101662.09
2019-03-23T14:45:46.356Z,101658.97
2019-03-23T14:48:18.676Z,101658.48
2019-03-23T14:50:50.955Z,101658.39
2019-03-23T14:53:23.715Z,101657.47
2019-03-23T14:55:56.114Z,101654.45
2019-03-23T14:58:28.636Z,101651.68
2019-03-23T15:01:01.400Z,101658.46
2019-03-23T15:03:33.999Z,101651.92
2019-03-23T15:06:06.610Z,101654.11
2019-03-23T15:08:39.400Z,101651.03
2019-03-23T15:11:12.294Z,101651.98
2019-03-23T15:13:44.802Z,101656.13
2019-03-23T15:16:17.709Z,101653.73
2019-03-23T15:18:50.269Z,101647.05
2019-03-23T15:21:23.139Z,101647.57
2019-03-23T15:23:55.801Z,101645.34
2019-03-23T15:26:28.059Z,101637.49
2019-03-23T15:29:00.932Z,101642.80
2019-03-23T15:31:33.570Z,101642.70
2019-03-23T15:34:06.395Z,101641.09
2019-03-23T15:36:38.975Z,101642.09
2019-03-23T15:39:12.000Z,101637.49
2019-03-23T15:41:44.520Z,101638.62
2019-03-23T15:44:16.795Z,101637.34
2019-03-23T15:46:49.570Z,101637.59
2019-03-23T15:49:21.905Z,101638.84
2019-03-23T15:51:54.425Z,101639.61
2019-03-23T15:54:26.825Z,101638.05
2019-03-23T15:56:59.645Z,101640.61
2019-03-23T15:59:32.066Z,101644.63
2019-03-23T16:02:04.505Z,101644.28
2019-03-23T16:04:37.246Z,101645.97
2019-03-23T16:07:09.730Z,101647.83
2019-03-23T16:09:42.029Z,101652.45
2019-03-23T16:12:14.547Z,101654.46
2019-03-23T16:14:47.125Z,101653.73
2019-03-23T16:17:19.563Z,101653.01
2019-03-23T16:19:52.109Z,101658.94
2019-03-23T16:22:25.710Z,101663.17
2019-03-23T16:24:58.435Z,101663.50
2019-03-23T16:27:31.238Z,101668.59
2019-03-23T16:30:04.775Z,101661.47
2019-03-23T16:32:37.610Z,101675.48
2019-03-23T16:35:10.125Z,101674.44
2019-03-23T16:37:42.540Z,101675.59
2019-03-23T16:40:15.000Z,101678.33
2019-03-23T16:42:47.591Z,101674.72
2019-03-23T16:45:19.933Z,101696.91
2019-03-23T16:47:52.397Z,101701.20
2019-03-23T16:50:25.083Z,101703.31
2019-03-23T16:52:58.125Z,101712.81
2019-03-23T16:55:32.290Z,101720.45
2019-03-23T16:58:05.315Z,101714.39
2019-03-23T17:00:38.526Z,101722.80
2019-03-23T17:03:11.060Z,101722.48
2019-03-23T17:05:43.510Z,101724.52
2019-03-23T17:08:15.880Z,101737.55
2019-03-23T17:10:49.325Z,101734.08
2019-03-23T17:13:22.001Z,101739.28
2019-03-23T17:15:54.446Z,101741.06
2019-03-23T17:18:26.990Z,101755.00
2019-03-23T17:20:59.772Z,101765.67
2019-03-23T17:23:32.486Z,101761.66
2019-03-23T17:26:05.292Z,101769.78
2019-03-23T17:28:37.795Z,101778.78
2019-03-23T17:31:10.431Z,101782.81
2019-03-23T17:33:42.643Z,101779.73
2019-03-23T17:36:15.318Z,101797.89
2019-03-23T17:38:47.983Z,101800.61
2019-03-23T17:41:20.812Z,101804.95
2019-03-23T17:43:53.234Z,101804.78
2019-03-23T17:46:27.734Z,101815.39
2019-03-23T17:49:00.116Z,101822.26
2019-03-23T17:51:33.022Z,101823.14
2019-03-23T17:54:05.555Z,101823.98
2019-03-23T17:56:38.245Z,101827.31
2019-03-23T17:59:10.635Z,101836.45
2019-03-23T18:01:43.130Z,101839.63
2019-03-23T18:04:15.870Z,101850.39
2019-03-23T18:06:48.281Z,101854.22
2019-03-23T18:09:20.831Z,101852.64
2019-03-23T18:11:53.480Z,101857.72
2019-03-23T18:14:26.100Z,101865.23
2019-03-23T18:16:58.559Z,101874.05
2019-03-23T18:19:32.537Z,101873.84
2019-03-23T18:22:05.115Z,101869.25
2019-03-23T18:24:37.830Z,101883.14
2019-03-23T18:27:10.415Z,101887.50
2019-03-23T18:29:42.992Z,101893.48
2019-03-23T18:32:15.741Z,101891.18
2019-03-23T18:34:48.447Z,101895.87
2019-03-23T18:37:21.270Z,101892.25
2019-03-23T18:39:54.035Z,101894.68
2019-03-23T18:42:26.655Z,101894.48
2019-03-23T18:44:59.295Z,101900.38
2019-03-23T18:47:32.267Z,101903.28
2019-03-23T18:50:06.126Z,101909.24
2019-03-23T18:52:39.825Z,101916.41
2019-03-23T18:55:12.610Z,101912.70
2019-03-23T18:57:45.146Z,101912.43
2019-03-23T19:00:32.951Z,101917.45
2019-03-23T19:03:05.485Z,101919.80
2019-03-23T19:05:38.096Z,101918.85
2019-03-23T19:08:11.942Z,101918.16
2019-03-23T19:10:44.880Z,101926.56
2019-03-23T19:13:17.720Z,101925.83
2019-03-23T19:15:50.056Z,101940.42
2019-03-23T19:18:22.896Z,101940.59
2019-03-23T19:20:55.385Z,101941.16
2019-03-23T19:23:28.195Z,101950.59
2019-03-23T19:26:00.700Z,101953.73
2019-03-23T19:28:33.663Z,101953.48
2019-03-23T19:31:06.495Z,101962.70
2019-03-23T19:33:39.518Z,101966.33
2019-03-23T19:36:11.975Z,101969.18
2019-03-23T19:38:44.820Z,101966.70
2019-03-23T19:41:17.526Z,101971.25
2019-03-23T19:43:51.953Z,101970.52
2019-03-23T19:46:24.618Z,101976.34
2019-03-23T19:48:57.545Z,101975.12
2019-03-23T19:51:30.085Z,101974.95
2019-03-23T19:54:02.761Z,101978.44
2019-03-23T19:56:35.206Z,101982.95
2019-03-23T19:59:07.970Z,101984.59
2019-03-23T20:01:40.645Z,101986.98
2019-03-23T20:04:13.530Z,101991.98
2019-03-23T20:06:46.160Z,101993.89
2019-03-23T20:09:18.665Z,101989.20
2019-03-23T20:11:51.176Z,101989.97
2019-03-23T20:14:23.475Z,101991.84
2019-03-23T20:16:57.021Z,101995.84
2019-03-23T20:19:29.615Z,101995.67
2019-03-23T20:22:02.607Z,101996.35
2019-03-23T20:24:35.025Z,101997.24
2019-03-23T20:27:07.530Z,101998.78
2019-03-23T20:29:40.795Z,102006.34
2019-03-23T20:32:13.440Z,102014.22
2019-03-23T20:34:46.077Z,102017.34
2019-03-23T20:37:18.435Z,102021.41
2019-03-23T20:39:51.265Z,102023.13
2019-03-23T20:42:23.970Z,102019.14
2019-03-23T20:44:56.815Z,102025.64
2019-03-23T20:47:29.275Z,102023.46
2019-03-23T20:50:02.071Z,102020.39
2019-03-23T20:52:35.670Z,102023.28
2019-03-23T20:55:17.565Z,102021.09
2019-03-23T20:57:50.816Z,102018.34
2019-03-23T21:00:23.544Z,102020.20
2019-03-23T21:02:56.101Z,102020.34
2019-03-23T21:05:34.235Z,102018.64
2019-03-23T21:08:04.820Z,102018.77
2019-03-23T21:10:37.945Z,102012.42
2019-03-23T21:13:10.805Z,102016.86
2019-03-23T21:15:43.546Z,102021.42
2019-03-23T21:18:16.320Z,102027.27
2019-03-23T21:20:49.217Z,102020.77
2019-03-23T21:23:22.025Z,102022.25
2019-03-23T21:25:54.803Z,102032.69
2019-03-23T21:28:27.872Z,102030.67
2019-03-23T21:31:01.177Z,102033.02
2019-03-23T21:33:38.819Z,102031.44
2019-03-23T21:36:08.244Z,102032.82
2019-03-23T21:38:41.340Z,102031.69
2019-03-23T21:41:14.095Z,102028.30
2019-03-23T21:43:46.578Z,102037.63
2019-03-23T21:46:19.345Z,102037.69
2019-03-23T21:48:51.890Z,102033.95
2019-03-23T21:51:24.900Z,102030.52
2019-03-23T21:54:00.535Z,102033.26
2019-03-23T21:56:33.425Z,102032.89
2019-03-23T21:59:06.080Z,102035.67
2019-03-23T22:01:38.458Z,102035.33
2019-03-23T22:04:11.280Z,102040.64
2019-03-23T22:06:44.367Z,102038.60
2019-03-23T22:09:16.795Z,102037.78
2019-03-23T22:11:49.321Z,102037.78
2019-03-23T22:14:21.960Z,102042.16
2019-03-23T22:16:54.485Z,102042.64
2019-03-23T22:19:27.040Z,102046.18
2019-03-23T22:21:59.965Z,102046.00
2019-03-23T22:24:32.525Z,102046.00
2019-03-23T22:27:05.164Z,102047.80
2019-03-23T22:29:37.676Z,102044.41
2019-03-23T22:32:10.326Z,102046.19
2019-03-23T22:34:43.406Z,102052.44
2019-03-23T22:37:16.040Z,102047.84
2019-03-23T22:39:48.740Z,102047.84
2019-03-23T22:42:21.130Z,102049.25
2019-03-23T22:44:53.599Z,102051.09
2019-03-23T22:47:25.874Z,102047.78
2019-03-23T22:49:58.660Z,102057.78
2019-03-23T22:52:30.900Z,102055.74
2019-03-23T22:55:03.302Z,102057.05
2019-03-23T22:57:35.760Z,102066.20
2019-03-23T23:00:14.095Z,102061.41
2019-03-23T23:02:48.105Z,102066.69
2019-03-23T23:05:20.515Z,102070.27
2019-03-23T23:07:52.952Z,102078.78
2019-03-23T23:10:25.316Z,102072.42
2019-03-23T23:12:57.636Z,102070.94
2019-03-23T23:15:30.195Z,102070.94
2019-03-23T23:18:02.591Z,102075.44
2019-03-23T23:20:34.735Z,102075.44
2019-03-23T23:23:07.040Z,102072.64
2019-03-23T23:25:39.570Z,102072.64
2019-03-23T23:28:12.276Z,102075.38
2019-03-23T23:30:44.881Z,102072.41
2019-03-23T23:33:17.560Z,102070.23
2019-03-23T23:35:50.191Z,102073.84
2019-03-23T23:38:22.667Z,102068.73
2019-03-23T23:40:55.222Z,102073.97
2019-03-23T23:43:27.483Z,102080.86
2019-03-23T23:46:00.924Z,102082.95
2019-03-23T23:48:33.573Z,102079.08
2019-03-23T23:51:06.051Z,102079.20
2019-03-23T23:53:38.360Z,102084.19
2019-03-23T23:56:11.144Z,102088.63
2019-03-23T23:58:43.546Z,102085.70
